Schedule Details


Flight Number: CTN416
Departure: Franjo Tudman (LDZA) at 09:05
Arrival: Frankfurt/main (EDDF) at 10:40
Route: OBUTI UM19 GRZ DCT SUBEN T161 PSA

Weather Information
LDZA 290200Z VRB02KT 9999 FEW010 02/01 Q1009 NOSIG
EDDF 290220Z 20010KT 9999 FEW012 SCT030 02/01 Q1003 NOSIG
Schedule Frequency

Route Map